sensor_id;sensor_type;location;lat;lon;timestamp;pressure;altitude;pressure_sealevel;temperature;humidity
65880;BME280;52661;51.364;6.054;2023-07-13T00:00:27;101070.38;;;18.33;89.74
65880;BME280;52661;51.364;6.054;2023-07-13T00:02:53;101069.47;;;18.23;90.51
65880;BME280;52661;51.364;6.054;2023-07-13T00:05:20;101064.59;;;18.14;90.39
65880;BME280;52661;51.364;6.054;2023-07-13T00:07:45;101064.00;;;18.07;91.25
65880;BME280;52661;51.364;6.054;2023-07-13T00:10:11;101070.00;;;18.18;90.45
65880;BME280;52661;51.364;6.054;2023-07-13T00:12:37;101073.44;;;18.06;90.50
65880;BME280;52661;51.364;6.054;2023-07-13T00:15:07;101078.84;;;17.93;91.73
65880;BME280;52661;51.364;6.054;2023-07-13T00:17:33;101079.09;;;17.99;91.38
65880;BME280;52661;51.364;6.054;2023-07-13T00:19:58;101076.09;;;17.93;91.82
65880;BME280;52661;51.364;6.054;2023-07-13T00:22:24;101075.25;;;17.96;91.99
65880;BME280;52661;51.364;6.054;2023-07-13T00:24:54;101070.25;;;17.91;92.47
65880;BME280;52661;51.364;6.054;2023-07-13T00:27:22;101080.75;;;17.96;92.40
65880;BME280;52661;51.364;6.054;2023-07-13T00:29:48;101076.78;;;17.97;92.43
65880;BME280;52661;51.364;6.054;2023-07-13T00:32:13;101068.13;;;17.83;93.31
65880;BME280;52661;51.364;6.054;2023-07-13T00:34:39;101071.38;;;17.94;92.76
65880;BME280;52661;51.364;6.054;2023-07-13T00:37:05;101074.88;;;17.94;92.84
65880;BME280;52661;51.364;6.054;2023-07-13T00:39:34;101089.66;;;18.00;92.56
65880;BME280;52661;51.364;6.054;2023-07-13T00:42:01;101085.72;;;17.85;93.84
65880;BME280;52661;51.364;6.054;2023-07-13T00:44:27;101077.56;;;17.82;94.19
65880;BME280;52661;51.364;6.054;2023-07-13T00:46:52;101080.97;;;17.69;95.00
65880;BME280;52661;51.364;6.054;2023-07-13T00:49:20;101073.50;;;17.54;96.01
65880;BME280;52661;51.364;6.054;2023-07-13T00:52:00;101087.59;;;17.36;97.08
65880;BME280;52661;51.364;6.054;2023-07-13T00:54:37;101079.78;;;17.35;98.09
65880;BME280;52661;51.364;6.054;2023-07-13T00:57:05;101073.81;;;17.40;98.18
65880;BME280;52661;51.364;6.054;2023-07-13T00:59:34;101079.63;;;17.42;98.44
65880;BME280;52661;51.364;6.054;2023-07-13T01:02:00;101078.06;;;17.25;99.67
65880;BME280;52661;51.364;6.054;2023-07-13T01:04:26;101087.88;;;17.22;100.00
65880;BME280;52661;51.364;6.054;2023-07-13T01:06:52;101080.03;;;17.24;100.00
65880;BME280;52661;51.364;6.054;2023-07-13T01:09:20;101085.34;;;17.31;100.00
65880;BME280;52661;51.364;6.054;2023-07-13T01:11:46;101083.50;;;17.44;99.99
65880;BME280;52661;51.364;6.054;2023-07-13T01:14:13;101082.78;;;17.40;100.00
65880;BME280;52661;51.364;6.054;2023-07-13T01:16:40;101085.13;;;17.42;100.00
65880;BME280;52661;51.364;6.054;2023-07-13T01:22:11;101084.81;;;17.20;100.00
65880;BME280;52661;51.364;6.054;2023-07-13T01:24:39;101079.81;;;17.15;100.00
65880;BME280;52661;51.364;6.054;2023-07-13T01:27:07;101084.56;;;17.14;100.00
65880;BME280;52661;51.364;6.054;2023-07-13T01:29:36;101075.25;;;17.08;100.00
65880;BME280;52661;51.364;6.054;2023-07-13T01:32:08;101084.81;;;17.20;100.00
65880;BME280;52661;51.364;6.054;2023-07-13T01:34:34;101096.63;;;16.97;100.00
65880;BME280;52661;51.364;6.054;2023-07-13T01:36:59;101088.28;;;17.04;100.00
65880;BME280;52661;51.364;6.054;2023-07-13T01:39:24;101089.56;;;17.00;100.00
65880;BME280;52661;51.364;6.054;2023-07-13T01:41:50;101092.16;;;16.87;100.00
65880;BME280;52661;51.364;6.054;2023-07-13T01:44:15;101090.75;;;16.99;100.00
65880;BME280;52661;51.364;6.054;2023-07-13T01:46:41;101080.34;;;16.90;100.00
65880;BME280;52661;51.364;6.054;2023-07-13T01:49:06;101087.31;;;16.95;100.00
65880;BME280;52661;51.364;6.054;2023-07-13T01:51:31;101085.56;;;16.85;100.00
65880;BME280;52661;51.364;6.054;2023-07-13T01:53:57;101079.69;;;16.83;100.00
65880;BME280;52661;51.364;6.054;2023-07-13T01:56:22;101082.00;;;17.04;100.00
65880;BME280;52661;51.364;6.054;2023-07-13T01:58:47;101076.41;;;16.91;100.00
65880;BME280;52661;51.364;6.054;2023-07-13T02:01:13;101078.91;;;16.82;100.00
65880;BME280;52661;51.364;6.054;2023-07-13T02:03:38;101084.41;;;16.82;100.00
65880;BME280;52661;51.364;6.054;2023-07-13T02:06:04;101079.44;;;16.77;100.00
65880;BME280;52661;51.364;6.054;2023-07-13T02:08:31;101085.97;;;16.83;100.00
65880;BME280;52661;51.364;6.054;2023-07-13T02:10:57;101079.56;;;16.70;100.00
65880;BME280;52661;51.364;6.054;2023-07-13T02:13:22;101080.28;;;16.74;100.00
65880;BME280;52661;51.364;6.054;2023-07-13T02:15:50;101081.72;;;16.79;100.00
65880;BME280;52661;51.364;6.054;2023-07-13T02:18:16;101078.03;;;16.89;100.00
65880;BME280;52661;51.364;6.054;2023-07-13T02:20:42;101083.16;;;16.87;100.00
65880;BME280;52661;51.364;6.054;2023-07-13T02:23:08;101081.47;;;16.73;100.00
65880;BME280;52661;51.364;6.054;2023-07-13T02:25:33;101071.47;;;16.63;100.00
65880;BME280;52661;51.364;6.054;2023-07-13T02:27:59;101074.56;;;16.65;100.00
65880;BME280;52661;51.364;6.054;2023-07-13T02:30:24;101077.31;;;16.65;100.00
65880;BME280;52661;51.364;6.054;2023-07-13T02:32:50;101088.97;;;16.69;100.00
65880;BME280;52661;51.364;6.054;2023-07-13T02:35:15;101087.63;;;16.57;100.00
65880;BME280;52661;51.364;6.054;2023-07-13T02:37:41;101093.41;;;16.63;100.00
65880;BME280;52661;51.364;6.054;2023-07-13T02:40:07;101092.81;;;16.52;100.00
65880;BME280;52661;51.364;6.054;2023-07-13T02:42:34;101087.66;;;16.54;100.00
65880;BME280;52661;51.364;6.054;2023-07-13T02:44:59;101087.66;;;16.54;100.00
65880;BME280;52661;51.364;6.054;2023-07-13T02:47:25;101087.31;;;16.52;100.00
65880;BME280;52661;51.364;6.054;2023-07-13T02:49:51;101089.81;;;16.43;100.00
65880;BME280;52661;51.364;6.054;2023-07-13T02:52:17;101090.25;;;16.41;100.00
65880;BME280;52661;51.364;6.054;2023-07-13T02:54:43;101100.72;;;16.46;100.00
65880;BME280;52661;51.364;6.054;2023-07-13T02:57:08;101096.78;;;16.47;100.00
65880;BME280;52661;51.364;6.054;2023-07-13T02:59:33;101104.78;;;16.38;100.00
65880;BME280;52661;51.364;6.054;2023-07-13T03:02:01;101107.09;;;16.40;100.00
65880;BME280;52661;51.364;6.054;2023-07-13T03:04:27;101109.63;;;16.31;100.00
65880;BME280;52661;51.364;6.054;2023-07-13T03:06:52;101118.50;;;16.38;100.00
65880;BME280;52661;51.364;6.054;2023-07-13T03:09:18;101111.75;;;16.43;100.00
65880;BME280;52661;51.364;6.054;2023-07-13T03:11:43;101111.75;;;16.43;100.00
65880;BME280;52661;51.364;6.054;2023-07-13T03:14:09;101113.81;;;16.35;100.00
65880;BME280;52661;51.364;6.054;2023-07-13T03:16:34;101113.94;;;16.28;100.00
65880;BME280;52661;51.364;6.054;2023-07-13T03:18:59;101121.94;;;16.42;100.00
65880;BME280;52661;51.364;6.054;2023-07-13T03:21:25;101126.41;;;16.33;100.00
65880;BME280;52661;51.364;6.054;2023-07-13T03:23:50;101122.16;;;16.28;100.00
65880;BME280;52661;51.364;6.054;2023-07-13T03:26:18;101124.97;;;16.24;100.00
65880;BME280;52661;51.364;6.054;2023-07-13T03:28:44;101122.59;;;16.27;100.00
65880;BME280;52661;51.364;6.054;2023-07-13T03:31:19;101121.69;;;16.33;100.00
65880;BME280;52661;51.364;6.054;2023-07-13T03:33:44;101123.19;;;16.38;100.00
65880;BME280;52661;51.364;6.054;2023-07-13T03:36:13;101123.91;;;16.18;100.00
65880;BME280;52661;51.364;6.054;2023-07-13T03:38:39;101126.28;;;16.16;100.00
65880;BME280;52661;51.364;6.054;2023-07-13T03:41:05;101129.44;;;16.15;100.00
65880;BME280;52661;51.364;6.054;2023-07-13T03:43:30;101124.38;;;16.13;100.00
65880;BME280;52661;51.364;6.054;2023-07-13T03:45:55;101133.47;;;16.07;100.00
65880;BME280;52661;51.364;6.054;2023-07-13T03:48:21;101138.84;;;16.14;100.00
65880;BME280;52661;51.364;6.054;2023-07-13T03:50:48;101132.75;;;16.03;100.00
65880;BME280;52661;51.364;6.054;2023-07-13T03:53:14;101136.69;;;16.02;100.00
65880;BME280;52661;51.364;6.054;2023-07-13T03:55:40;101133.91;;;16.05;100.00
65880;BME280;52661;51.364;6.054;2023-07-13T03:58:39;101132.47;;;15.97;100.00
65880;BME280;52661;51.364;6.054;2023-07-13T04:01:07;101138.09;;;15.87;100.00
65880;BME280;52661;51.364;6.054;2023-07-13T04:03:34;101145.78;;;15.95;100.00
65880;BME280;52661;51.364;6.054;2023-07-13T04:06:00;101128.59;;;15.95;100.00
65880;BME280;52661;51.364;6.054;2023-07-13T04:08:27;101135.44;;;16.06;100.00
65880;BME280;52661;51.364;6.054;2023-07-13T04:10:53;101143.03;;;15.95;100.00
65880;BME280;52661;51.364;6.054;2023-07-13T04:13:18;101132.34;;;15.77;100.00
65880;BME280;52661;51.364;6.054;2023-07-13T04:15:43;101137.66;;;15.88;100.00
65880;BME280;52661;51.364;6.054;2023-07-13T04:18:09;101142.69;;;15.93;100.00
65880;BME280;52661;51.364;6.054;2023-07-13T04:20:35;101148.56;;;15.92;100.00
65880;BME280;52661;51.364;6.054;2023-07-13T04:23:00;101143.41;;;15.97;100.00
65880;BME280;52661;51.364;6.054;2023-07-13T04:25:26;101143.34;;;16.01;100.00
65880;BME280;52661;51.364;6.054;2023-07-13T04:27:52;101144.25;;;16.17;100.00
65880;BME280;52661;51.364;6.054;2023-07-13T04:30:18;101143.59;;;16.10;100.00
65880;BME280;52661;51.364;6.054;2023-07-13T04:32:43;101144.59;;;15.96;100.00
65880;BME280;52661;51.364;6.054;2023-07-13T04:35:09;101141.22;;;16.12;100.00
65880;BME280;52661;51.364;6.054;2023-07-13T04:37:34;101132.88;;;15.96;100.00
65880;BME280;52661;51.364;6.054;2023-07-13T04:40:01;101142.69;;;15.93;100.00
65880;BME280;52661;51.364;6.054;2023-07-13T04:42:26;101143.88;;;15.92;100.00
65880;BME280;52661;51.364;6.054;2023-07-13T04:44:52;101147.72;;;15.98;100.00
65880;BME280;52661;51.364;6.054;2023-07-13T04:47:18;101149.81;;;15.87;100.00
65880;BME280;52661;51.364;6.054;2023-07-13T04:49:44;101156.72;;;15.95;100.00
65880;BME280;52661;51.364;6.054;2023-07-13T04:52:10;101154.88;;;15.89;100.00
65880;BME280;52661;51.364;6.054;2023-07-13T04:54:35;101150.91;;;15.93;100.00
65880;BME280;52661;51.364;6.054;2023-07-13T04:57:03;101155.88;;;16.02;100.00
65880;BME280;52661;51.364;6.054;2023-07-13T04:59:29;101159.63;;;16.11;100.00
65880;BME280;52661;51.364;6.054;2023-07-13T05:01:55;101159.97;;;16.13;100.00
65880;BME280;52661;51.364;6.054;2023-07-13T05:04:20;101159.44;;;16.22;100.00
65880;BME280;52661;51.364;6.054;2023-07-13T05:06:46;101166.22;;;16.14;100.00
65880;BME280;52661;51.364;6.054;2023-07-13T05:09:11;101164.63;;;16.16;100.00
65880;BME280;52661;51.364;6.054;2023-07-13T05:11:37;101164.97;;;16.18;100.00
65880;BME280;52661;51.364;6.054;2023-07-13T05:14:03;101165.03;;;16.15;100.00
65880;BME280;52661;51.364;6.054;2023-07-13T05:16:28;101162.31;;;16.15;100.00
65880;BME280;52661;51.364;6.054;2023-07-13T05:18:54;101170.41;;;16.22;100.00
65880;BME280;52661;51.364;6.054;2023-07-13T05:21:19;101164.22;;;16.18;100.00
65880;BME280;52661;51.364;6.054;2023-07-13T05:23:45;101175.44;;;16.27;100.00
65880;BME280;52661;51.364;6.054;2023-07-13T05:26:11;101180.78;;;16.34;100.00
65880;BME280;52661;51.364;6.054;2023-07-13T05:28:37;101180.28;;;16.39;100.00
65880;BME280;52661;51.364;6.054;2023-07-13T05:31:03;101190.31;;;16.49;100.00
65880;BME280;52661;51.364;6.054;2023-07-13T05:33:28;101188.72;;;16.52;100.00
65880;BME280;52661;51.364;6.054;2023-07-13T05:35:54;101191.75;;;16.57;100.00
65880;BME280;52661;51.364;6.054;2023-07-13T05:38:19;101192.53;;;16.58;100.00
65880;BME280;52661;51.364;6.054;2023-07-13T05:40:45;101197.69;;;16.56;100.00
65880;BME280;52661;51.364;6.054;2023-07-13T05:43:12;101199.84;;;16.64;100.00
65880;BME280;52661;51.364;6.054;2023-07-13T05:45:37;101208.63;;;16.79;100.00
65880;BME280;52661;51.364;6.054;2023-07-13T05:48:03;101206.13;;;16.88;100.00
65880;BME280;52661;51.364;6.054;2023-07-13T05:50:28;101212.72;;;16.91;100.00
65880;BME280;52661;51.364;6.054;2023-07-13T05:52:54;101207.84;;;16.79;100.00
65880;BME280;52661;51.364;6.054;2023-07-13T05:55:20;101214.16;;;16.76;100.00
65880;BME280;52661;51.364;6.054;2023-07-13T05:57:46;101216.06;;;16.79;100.00
65880;BME280;52661;51.364;6.054;2023-07-13T06:00:12;101220.00;;;16.78;100.00
65880;BME280;52661;51.364;6.054;2023-07-13T06:02:37;101217.53;;;16.63;100.00
65880;BME280;52661;51.364;6.054;2023-07-13T06:05:03;101219.09;;;16.61;100.00
65880;BME280;52661;51.364;6.054;2023-07-13T06:07:28;101225.84;;;16.80;100.00
65880;BME280;52661;51.364;6.054;2023-07-13T06:09:54;101228.19;;;16.81;100.00
65880;BME280;52661;51.364;6.054;2023-07-13T06:12:19;101228.72;;;16.72;100.00
65880;BME280;52661;51.364;6.054;2023-07-13T06:14:45;101236.88;;;16.76;100.00
65880;BME280;52661;51.364;6.054;2023-07-13T06:17:10;101239.44;;;16.87;100.00
65880;BME280;52661;51.364;6.054;2023-07-13T06:19:35;101227.94;;;16.72;100.00
65880;BME280;52661;51.364;6.054;2023-07-13T06:22:01;101233.59;;;16.85;100.00
65880;BME280;52661;51.364;6.054;2023-07-13T06:24:26;101229.28;;;16.84;100.00
65880;BME280;52661;51.364;6.054;2023-07-13T06:26:52;101234.66;;;16.91;100.00
65880;BME280;52661;51.364;6.054;2023-07-13T06:29:17;101236.50;;;16.97;100.00
65880;BME280;52661;51.364;6.054;2023-07-13T06:31:43;101243.88;;;17.00;100.00
65880;BME280;52661;51.364;6.054;2023-07-13T06:34:08;101249.47;;;17.16;100.00
65880;BME280;52661;51.364;6.054;2023-07-13T06:36:34;101254.25;;;17.12;100.00
65880;BME280;52661;51.364;6.054;2023-07-13T06:38:59;101246.75;;;16.93;100.00
65880;BME280;52661;51.364;6.054;2023-07-13T06:41:24;101249.78;;;16.99;100.00
65880;BME280;52661;51.364;6.054;2023-07-13T06:43:53;101250.72;;;17.12;100.00
65880;BME280;52661;51.364;6.054;2023-07-13T06:46:20;101256.00;;;17.03;100.00
65880;BME280;52661;51.364;6.054;2023-07-13T06:48:46;101257.47;;;17.07;100.00
65880;BME280;52661;51.364;6.054;2023-07-13T06:51:11;101263.25;;;17.13;100.00
65880;BME280;52661;51.364;6.054;2023-07-13T06:53:37;101268.88;;;17.26;100.00
65880;BME280;52661;51.364;6.054;2023-07-13T06:56:02;101271.56;;;17.29;100.00
65880;BME280;52661;51.364;6.054;2023-07-13T06:58:27;101264.09;;;17.30;100.00
65880;BME280;52661;51.364;6.054;2023-07-13T07:00:53;101266.28;;;17.18;100.00
65880;BME280;52661;51.364;6.054;2023-07-13T07:03:18;101270.56;;;17.19;100.00
65880;BME280;52661;51.364;6.054;2023-07-13T07:05:44;101271.16;;;17.07;100.00
65880;BME280;52661;51.364;6.054;2023-07-13T07:08:09;101276.72;;;17.04;100.00
65880;BME280;52661;51.364;6.054;2023-07-13T07:10:35;101279.16;;;17.21;100.00
65880;BME280;52661;51.364;6.054;2023-07-13T07:13:02;101278.41;;;17.21;100.00
65880;BME280;52661;51.364;6.054;2023-07-13T07:15:27;101283.94;;;17.37;100.00
65880;BME280;52661;51.364;6.054;2023-07-13T07:17:53;101281.66;;;17.36;100.00
65880;BME280;52661;51.364;6.054;2023-07-13T07:20:18;101288.13;;;17.45;100.00
65880;BME280;52661;51.364;6.054;2023-07-13T07:22:45;101292.97;;;17.38;100.00
65880;BME280;52661;51.364;6.054;2023-07-13T07:25:10;101281.91;;;17.41;100.00
65880;BME280;52661;51.364;6.054;2023-07-13T07:27:36;101290.88;;;17.45;100.00
65880;BME280;52661;51.364;6.054;2023-07-13T07:30:01;101291.63;;;17.46;100.00
65880;BME280;52661;51.364;6.054;2023-07-13T07:32:29;101296.00;;;17.43;100.00
65880;BME280;52661;51.364;6.054;2023-07-13T07:34:54;101293.03;;;17.57;100.00
65880;BME280;52661;51.364;6.054;2023-07-13T07:37:20;101290.38;;;17.50;100.00
65880;BME280;52661;51.364;6.054;2023-07-13T07:39:45;101296.59;;;17.54;100.00
65880;BME280;52661;51.364;6.054;2023-07-13T07:42:11;101293.03;;;17.57;100.00
65880;BME280;52661;51.364;6.054;2023-07-13T07:44:38;101295.31;;;17.59;100.00
65880;BME280;52661;51.364;6.054;2023-07-13T07:47:03;101299.81;;;17.69;100.00
65880;BME280;52661;51.364;6.054;2023-07-13T07:49:29;101294.19;;;17.76;100.00
65880;BME280;52661;51.364;6.054;2023-07-13T07:51:54;101289.47;;;17.96;100.00
65880;BME280;52661;51.364;6.054;2023-07-13T07:54:20;101288.47;;;18.06;100.00
65880;BME280;52661;51.364;6.054;2023-07-13T07:56:45;101290.34;;;18.09;100.00
65880;BME280;52661;51.364;6.054;2023-07-13T07:59:10;101296.09;;;17.99;100.00
65880;BME280;52661;51.364;6.054;2023-07-13T08:01:37;101294.66;;;18.10;100.00
65880;BME280;52661;51.364;6.054;2023-07-13T08:04:02;101291.69;;;18.21;100.00
65880;BME280;52661;51.364;6.054;2023-07-13T08:06:28;101292.25;;;18.12;100.00
65880;BME280;52661;51.364;6.054;2023-07-13T08:08:54;101295.81;;;18.29;100.00
65880;BME280;52661;51.364;6.054;2023-07-13T08:11:20;101302.16;;;18.26;100.00
65880;BME280;52661;51.364;6.054;2023-07-13T08:13:46;101298.72;;;18.22;100.00
65880;BME280;52661;51.364;6.054;2023-07-13T08:16:11;101296.06;;;18.18;100.00
65880;BME280;52661;51.364;6.054;2023-07-13T08:18:37;101300.03;;;18.34;100.00
65880;BME280;52661;51.364;6.054;2023-07-13T08:21:06;101300.88;;;18.31;100.00
65880;BME280;52661;51.364;6.054;2023-07-13T08:23:32;101291.19;;;18.42;100.00
65880;BME280;52661;51.364;6.054;2023-07-13T08:25:58;101291.72;;;18.37;100.00
65880;BME280;52661;51.364;6.054;2023-07-13T08:28:23;101295.22;;;18.38;100.00
65880;BME280;52661;51.364;6.054;2023-07-13T08:30:49;101296.81;;;18.55;100.00
65880;BME280;52661;51.364;6.054;2023-07-13T08:33:19;101297.69;;;18.52;100.00
65880;BME280;52661;51.364;6.054;2023-07-13T08:35:48;101299.66;;;18.51;100.00
65880;BME280;52661;51.364;6.054;2023-07-13T08:38:15;101298.44;;;18.52;100.00
65880;BME280;52661;51.364;6.054;2023-07-13T08:40:41;101301.03;;;18.59;100.00
65880;BME280;52661;51.364;6.054;2023-07-13T08:43:09;101301.03;;;18.76;100.00
65880;BME280;52661;51.364;6.054;2023-07-13T08:45:45;101302.94;;;18.62;100.00
65880;BME280;52661;51.364;6.054;2023-07-13T08:48:20;101295.09;;;18.61;100.00
65880;BME280;52661;51.364;6.054;2023-07-13T08:50:55;101301.63;;;18.67;100.00
65880;BME280;52661;51.364;6.054;2023-07-13T08:53:23;101302.69;;;18.73;100.00
65880;BME280;52661;51.364;6.054;2023-07-13T08:55:57;101302.25;;;18.91;100.00
65880;BME280;52661;51.364;6.054;2023-07-13T08:58:25;101304.19;;;19.06;100.00
65880;BME280;52661;51.364;6.054;2023-07-13T09:03:57;101300.03;;;19.31;100.00
65880;BME280;52661;51.364;6.054;2023-07-13T09:06:40;101297.97;;;19.18;100.00
65880;BME280;52661;51.364;6.054;2023-07-13T09:16:59;101304.97;;;19.36;100.00
65880;BME280;52661;51.364;6.054;2023-07-13T09:19:30;101307.84;;;19.32;100.00
65880;BME280;52661;51.364;6.054;2023-07-13T09:21:59;101312.50;;;19.35;100.00
65880;BME280;52661;51.364;6.054;2023-07-13T09:26:56;101309.09;;;19.73;100.00
65880;BME280;52661;51.364;6.054;2023-07-13T09:29:32;101311.97;;;19.69;100.00
65880;BME280;52661;51.364;6.054;2023-07-13T09:32:02;101305.00;;;19.64;100.00
65880;BME280;52661;51.364;6.054;2023-07-13T09:34:29;101307.44;;;19.62;100.00
65880;BME280;52661;51.364;6.054;2023-07-13T09:36:58;101311.06;;;19.59;100.00
65880;BME280;52661;51.364;6.054;2023-07-13T09:39:35;101301.03;;;19.53;100.00
65880;BME280;52661;51.364;6.054;2023-07-13T09:42:16;101306.09;;;19.96;100.00
65880;BME280;52661;51.364;6.054;2023-07-13T09:44:53;101315.56;;;19.95;100.00
65880;BME280;52661;51.364;6.054;2023-07-13T09:47:21;101303.38;;;19.67;100.00
65880;BME280;52661;51.364;6.054;2023-07-13T09:50:00;101318.97;;;19.57;100.00
65880;BME280;52661;51.364;6.054;2023-07-13T09:52:27;101314.03;;;19.65;100.00
65880;BME280;52661;51.364;6.054;2023-07-13T09:54:54;101311.34;;;19.78;100.00
65880;BME280;52661;51.364;6.054;2023-07-13T09:57:26;101305.72;;;19.81;100.00
65880;BME280;52661;51.364;6.054;2023-07-13T09:59:54;101316.88;;;19.90;100.00
65880;BME280;52661;51.364;6.054;2023-07-13T10:05:00;101308.06;;;19.95;100.00
65880;BME280;52661;51.364;6.054;2023-07-13T10:07:26;101303.50;;;20.43;100.00
65880;BME280;52661;51.364;6.054;2023-07-13T10:09:57;101310.13;;;20.33;100.00
65880;BME280;52661;51.364;6.054;2023-07-13T10:12:23;101302.38;;;20.40;100.00
65880;BME280;52661;51.364;6.054;2023-07-13T10:15:14;101304.03;;;20.63;100.00
65880;BME280;52661;51.364;6.054;2023-07-13T10:17:40;101314.84;;;20.70;100.00
65880;BME280;52661;51.364;6.054;2023-07-13T10:20:06;101317.31;;;21.02;97.98
65880;BME280;52661;51.364;6.054;2023-07-13T10:22:59;101317.56;;;20.95;97.70
65880;BME280;52661;51.364;6.054;2023-07-13T10:25:29;101319.47;;;20.73;98.84
65880;BME280;52661;51.364;6.054;2023-07-13T10:28:50;101317.50;;;20.61;98.71
65880;BME280;52661;51.364;6.054;2023-07-13T10:30:49;101317.91;;;20.85;100.00
65880;BME280;52661;51.364;6.054;2023-07-13T10:33:17;101317.66;;;21.04;98.52
65880;BME280;52661;51.364;6.054;2023-07-13T10:35:43;101318.41;;;21.18;94.67
65880;BME280;52661;51.364;6.054;2023-07-13T10:38:14;101308.31;;;21.36;93.12
65880;BME280;52661;51.364;6.054;2023-07-13T10:41:15;101320.31;;;21.64;92.07
65880;BME280;52661;51.364;6.054;2023-07-13T10:43:44;101308.06;;;21.43;91.60
65880;BME280;52661;51.364;6.054;2023-07-13T10:46:13;101309.09;;;21.24;94.32
65880;BME280;52661;51.364;6.054;2023-07-13T10:48:40;101316.09;;;21.50;95.01
65880;BME280;52661;51.364;6.054;2023-07-13T10:51:08;101313.16;;;21.67;89.52
65880;BME280;52661;51.364;6.054;2023-07-13T10:53:36;101309.78;;;21.50;88.86
65880;BME280;52661;51.364;6.054;2023-07-13T10:56:05;101310.75;;;21.56;89.77
65880;BME280;52661;51.364;6.054;2023-07-13T10:58:40;101309.38;;;21.82;90.28
65880;BME280;52661;51.364;6.054;2023-07-13T11:03:38;101307.09;;;22.02;85.62
65880;BME280;52661;51.364;6.054;2023-07-13T11:06:39;101319.94;;;21.96;84.86
65880;BME280;52661;51.364;6.054;2023-07-13T11:09:37;101310.13;;;21.95;84.30
65880;BME280;52661;51.364;6.054;2023-07-13T11:12:10;101316.53;;;21.92;85.66
65880;BME280;52661;51.364;6.054;2023-07-13T11:19:53;101316.59;;;21.80;88.27
65880;BME280;52661;51.364;6.054;2023-07-13T11:22:24;101317.94;;;21.75;91.15
65880;BME280;52661;51.364;6.054;2023-07-13T11:24:59;101328.69;;;21.95;83.41
65880;BME280;52661;51.364;6.054;2023-07-13T11:27:41;101319.91;;;22.18;84.06
65880;BME280;52661;51.364;6.054;2023-07-13T11:31:00;101320.59;;;22.31;84.05
65880;BME280;52661;51.364;6.054;2023-07-13T11:35:43;101323.72;;;21.90;85.05
65880;BME280;52661;51.364;6.054;2023-07-13T11:40:45;101315.78;;;21.48;85.65
65880;BME280;52661;51.364;6.054;2023-07-13T11:43:14;101321.19;;;21.18;86.66
65880;BME280;52661;51.364;6.054;2023-07-13T11:45:40;101325.84;;;20.95;96.27
65880;BME280;52661;51.364;6.054;2023-07-13T11:48:18;101327.09;;;20.56;100.00
65880;BME280;52661;51.364;6.054;2023-07-13T11:50:50;101336.81;;;20.36;100.00
65880;BME280;52661;51.364;6.054;2023-07-13T11:53:17;101323.19;;;20.16;100.00
65880;BME280;52661;51.364;6.054;2023-07-13T11:55:42;101330.53;;;20.35;100.00
65880;BME280;52661;51.364;6.054;2023-07-13T11:58:09;101328.53;;;20.61;100.00
65880;BME280;52661;51.364;6.054;2023-07-13T12:00:37;101321.31;;;21.01;100.00
65880;BME280;52661;51.364;6.054;2023-07-13T12:03:03;101332.59;;;21.41;100.00
65880;BME280;52661;51.364;6.054;2023-07-13T12:05:30;101335.94;;;21.58;99.06
65880;BME280;52661;51.364;6.054;2023-07-13T12:07:57;101328.34;;;21.49;90.65
65880;BME280;52661;51.364;6.054;2023-07-13T12:10:28;101329.84;;;21.63;93.22
65880;BME280;52661;51.364;6.054;2023-07-13T12:12:56;101331.50;;;22.04;94.13
65880;BME280;52661;51.364;6.054;2023-07-13T12:15:23;101327.25;;;22.12;89.55
65880;BME280;52661;51.364;6.054;2023-07-13T12:17:49;101316.69;;;22.20;89.61
65880;BME280;52661;51.364;6.054;2023-07-13T12:20:25;101320.53;;;22.22;87.81
65880;BME280;52661;51.364;6.054;2023-07-13T12:22:51;101323.53;;;22.37;87.24
65880;BME280;52661;51.364;6.054;2023-07-13T12:25:18;101310.88;;;22.27;84.51
65880;BME280;52661;51.364;6.054;2023-07-13T12:27:47;101323.34;;;22.00;87.29
65880;BME280;52661;51.364;6.054;2023-07-13T12:32:59;101329.06;;;22.06;85.70
65880;BME280;52661;51.364;6.054;2023-07-13T12:35:26;101321.19;;;22.26;85.89
65880;BME280;52661;51.364;6.054;2023-07-13T12:37:56;101330.56;;;22.29;82.52
65880;BME280;52661;51.364;6.054;2023-07-13T12:40:32;101325.34;;;22.31;84.72
65880;BME280;52661;51.364;6.054;2023-07-13T12:42:58;101329.53;;;22.35;84.49
65880;BME280;52661;51.364;6.054;2023-07-13T12:45:26;101333.69;;;22.40;79.22
65880;BME280;52661;51.364;6.054;2023-07-13T12:50:30;101335.09;;;22.75;80.16
65880;BME280;52661;51.364;6.054;2023-07-13T12:53:02;101338.91;;;22.78;77.57
65880;BME280;52661;51.364;6.054;2023-07-13T12:55:41;101335.13;;;23.12;78.55
65880;BME280;52661;51.364;6.054;2023-07-13T12:58:16;101337.75;;;23.33;77.59
65880;BME280;52661;51.364;6.054;2023-07-13T13:00:48;101331.03;;;23.43;74.95
65880;BME280;52661;51.364;6.054;2023-07-13T13:03:25;101335.78;;;23.52;75.22
65880;BME280;52661;51.364;6.054;2023-07-13T13:06:01;101338.53;;;23.70;76.30
65880;BME280;52661;51.364;6.054;2023-07-13T13:08:29;101330.66;;;24.05;78.78
65880;BME280;52661;51.364;6.054;2023-07-13T13:10:55;101340.06;;;23.89;73.58
65880;BME280;52661;51.364;6.054;2023-07-13T13:13:21;101336.84;;;23.36;69.46
65880;BME280;52661;51.364;6.054;2023-07-13T13:15:46;101337.63;;;23.19;71.49
65880;BME280;52661;51.364;6.054;2023-07-13T13:18:17;101331.50;;;23.51;70.40
65880;BME280;52661;51.364;6.054;2023-07-13T13:20:43;101340.88;;;23.53;68.25
65880;BME280;52661;51.364;6.054;2023-07-13T13:23:19;101336.09;;;23.36;72.35